sensor_id;sensor_type;location;lat;lon;timestamp;temperature;humidity
9772;DHT22;4925;52.588;13.370;2023-03-02T00:00:44;3.10;99.90
9772;DHT22;4925;52.588;13.370;2023-03-02T00:03:12;3.10;99.90
9772;DHT22;4925;52.588;13.370;2023-03-02T00:05:39;3.00;99.90
9772;DHT22;4925;52.588;13.370;2023-03-02T00:08:07;3.00;99.90
9772;DHT22;4925;52.588;13.370;2023-03-02T00:10:35;3.00;99.90
9772;DHT22;4925;52.588;13.370;2023-03-02T00:13:02;3.00;99.90
9772;DHT22;4925;52.588;13.370;2023-03-02T00:15:28;3.00;99.90
9772;DHT22;4925;52.588;13.370;2023-03-02T00:17:53;3.00;99.90
9772;DHT22;4925;52.588;13.370;2023-03-02T00:20:19;3.00;99.90
9772;DHT22;4925;52.588;13.370;2023-03-02T00:22:45;3.00;99.90
9772;DHT22;4925;52.588;13.370;2023-03-02T00:25:13;3.00;99.90
9772;DHT22;4925;52.588;13.370;2023-03-02T00:27:39;3.00;99.90
9772;DHT22;4925;52.588;13.370;2023-03-02T00:30:06;3.00;99.90
9772;DHT22;4925;52.588;13.370;2023-03-02T00:32:32;3.00;99.90
9772;DHT22;4925;52.588;13.370;2023-03-02T00:34:58;2.90;99.90
9772;DHT22;4925;52.588;13.370;2023-03-02T00:37:24;2.90;99.90
9772;DHT22;4925;52.588;13.370;2023-03-02T00:39:53;2.80;99.90
9772;DHT22;4925;52.588;13.370;2023-03-02T00:42:20;2.80;99.90
9772;DHT22;4925;52.588;13.370;2023-03-02T00:44:45;2.80;99.90
9772;DHT22;4925;52.588;13.370;2023-03-02T00:47:11;2.80;99.90
9772;DHT22;4925;52.588;13.370;2023-03-02T00:49:37;2.80;99.90
9772;DHT22;4925;52.588;13.370;2023-03-02T00:52:04;2.80;99.90
9772;DHT22;4925;52.588;13.370;2023-03-02T00:54:30;2.80;99.90
9772;DHT22;4925;52.588;13.370;2023-03-02T00:56:55;2.80;99.90
9772;DHT22;4925;52.588;13.370;2023-03-02T00:59:21;2.70;99.90
9772;DHT22;4925;52.588;13.370;2023-03-02T01:01:54;2.70;99.90
9772;DHT22;4925;52.588;13.370;2023-03-02T01:04:26;2.80;99.90
9772;DHT22;4925;52.588;13.370;2023-03-02T01:07:02;2.70;99.90
9772;DHT22;4925;52.588;13.370;2023-03-02T01:09:29;2.70;99.90
9772;DHT22;4925;52.588;13.370;2023-03-02T01:11:54;2.70;99.90
9772;DHT22;4925;52.588;13.370;2023-03-02T01:14:20;2.70;99.90
9772;DHT22;4925;52.588;13.370;2023-03-02T01:16:46;2.70;99.90
9772;DHT22;4925;52.588;13.370;2023-03-02T01:19:16;2.70;99.90
9772;DHT22;4925;52.588;13.370;2023-03-02T01:21:42;2.70;99.90
9772;DHT22;4925;52.588;13.370;2023-03-02T01:24:08;2.70;99.90
9772;DHT22;4925;52.588;13.370;2023-03-02T01:26:35;2.70;99.90
9772;DHT22;4925;52.588;13.370;2023-03-02T01:29:03;2.70;99.90
9772;DHT22;4925;52.588;13.370;2023-03-02T01:31:29;2.70;99.90
9772;DHT22;4925;52.588;13.370;2023-03-02T01:33:55;2.70;99.90
9772;DHT22;4925;52.588;13.370;2023-03-02T01:36:22;2.70;99.90
9772;DHT22;4925;52.588;13.370;2023-03-02T01:38:49;2.70;99.90
9772;DHT22;4925;52.588;13.370;2023-03-02T01:44:50;2.70;99.90
9772;DHT22;4925;52.588;13.370;2023-03-02T01:47:34;2.70;99.90
9772;DHT22;4925;52.588;13.370;2023-03-02T01:52:45;2.70;99.90
9772;DHT22;4925;52.588;13.370;2023-03-02T01:55:13;2.70;99.90
9772;DHT22;4925;52.588;13.370;2023-03-02T01:57:44;2.70;99.90
9772;DHT22;4925;52.588;13.370;2023-03-02T02:00:35;2.70;99.90
9772;DHT22;4925;52.588;13.370;2023-03-02T02:03:07;2.70;99.90
9772;DHT22;4925;52.588;13.370;2023-03-02T02:05:40;2.70;99.90
9772;DHT22;4925;52.588;13.370;2023-03-02T02:08:07;2.80;99.90
9772;DHT22;4925;52.588;13.370;2023-03-02T02:10:33;2.70;99.90
9772;DHT22;4925;52.588;13.370;2023-03-02T02:13:00;2.70;99.90
9772;DHT22;4925;52.588;13.370;2023-03-02T02:15:26;2.70;99.90
9772;DHT22;4925;52.588;13.370;2023-03-02T02:17:51;2.70;99.90
9772;DHT22;4925;52.588;13.370;2023-03-02T02:20:38;2.70;99.90
9772;DHT22;4925;52.588;13.370;2023-03-02T02:28:38;2.50;99.90
9772;DHT22;4925;52.588;13.370;2023-03-02T02:36:55;2.50;99.90
9772;DHT22;4925;52.588;13.370;2023-03-02T02:39:27;2.40;99.90
9772;DHT22;4925;52.588;13.370;2023-03-02T02:41:56;2.40;99.90
9772;DHT22;4925;52.588;13.370;2023-03-02T02:44:23;2.40;99.90
9772;DHT22;4925;52.588;13.370;2023-03-02T02:46:48;2.40;99.90
9772;DHT22;4925;52.588;13.370;2023-03-02T02:49:34;2.40;99.90
9772;DHT22;4925;52.588;13.370;2023-03-02T02:52:02;2.40;99.90
9772;DHT22;4925;52.588;13.370;2023-03-02T02:54:30;2.40;99.90
9772;DHT22;4925;52.588;13.370;2023-03-02T02:56:58;2.40;99.90
9772;DHT22;4925;52.588;13.370;2023-03-02T02:59:29;2.40;99.90
9772;DHT22;4925;52.588;13.370;2023-03-02T03:01:57;2.40;99.90
9772;DHT22;4925;52.588;13.370;2023-03-02T03:04:29;2.40;99.90
9772;DHT22;4925;52.588;13.370;2023-03-02T03:06:57;2.50;99.90
9772;DHT22;4925;52.588;13.370;2023-03-02T03:09:24;2.40;99.90
9772;DHT22;4925;52.588;13.370;2023-03-02T03:12:05;2.40;99.90
9772;DHT22;4925;52.588;13.370;2023-03-02T03:14:38;2.40;99.90
9772;DHT22;4925;52.588;13.370;2023-03-02T03:17:05;2.40;99.90
9772;DHT22;4925;52.588;13.370;2023-03-02T03:19:37;2.40;99.90
9772;DHT22;4925;52.588;13.370;2023-03-02T03:22:03;2.40;99.90
9772;DHT22;4925;52.588;13.370;2023-03-02T03:24:31;2.40;99.90
9772;DHT22;4925;52.588;13.370;2023-03-02T03:26:57;2.30;99.90
9772;DHT22;4925;52.588;13.370;2023-03-02T03:29:25;2.40;99.90
9772;DHT22;4925;52.588;13.370;2023-03-02T03:31:52;2.40;99.90
9772;DHT22;4925;52.588;13.370;2023-03-02T03:34:19;2.40;99.90
9772;DHT22;4925;52.588;13.370;2023-03-02T03:36:45;2.40;99.90
9772;DHT22;4925;52.588;13.370;2023-03-02T03:39:12;2.30;99.90
9772;DHT22;4925;52.588;13.370;2023-03-02T03:41:39;2.40;99.90
9772;DHT22;4925;52.588;13.370;2023-03-02T03:44:05;2.40;99.90
9772;DHT22;4925;52.588;13.370;2023-03-02T03:46:30;2.40;99.90
9772;DHT22;4925;52.588;13.370;2023-03-02T03:48:56;2.40;99.90
9772;DHT22;4925;52.588;13.370;2023-03-02T03:51:22;2.30;99.90
9772;DHT22;4925;52.588;13.370;2023-03-02T03:53:48;2.30;99.90
9772;DHT22;4925;52.588;13.370;2023-03-02T03:56:25;2.30;99.90
9772;DHT22;4925;52.588;13.370;2023-03-02T03:58:51;2.40;99.90
9772;DHT22;4925;52.588;13.370;2023-03-02T04:01:39;2.30;99.90
9772;DHT22;4925;52.588;13.370;2023-03-02T04:04:08;2.20;99.90
9772;DHT22;4925;52.588;13.370;2023-03-02T04:06:34;2.20;99.90
9772;DHT22;4925;52.588;13.370;2023-03-02T04:08:59;2.10;99.90
9772;DHT22;4925;52.588;13.370;2023-03-02T04:11:33;2.10;99.90
9772;DHT22;4925;52.588;13.370;2023-03-02T04:14:00;2.10;99.90
9772;DHT22;4925;52.588;13.370;2023-03-02T04:16:27;2.00;99.90
9772;DHT22;4925;52.588;13.370;2023-03-02T04:18:52;2.00;99.90
9772;DHT22;4925;52.588;13.370;2023-03-02T04:21:18;2.00;99.90
9772;DHT22;4925;52.588;13.370;2023-03-02T04:23:44;2.00;99.90
9772;DHT22;4925;52.588;13.370;2023-03-02T04:26:10;2.00;99.90
9772;DHT22;4925;52.588;13.370;2023-03-02T04:28:35;2.00;99.90
9772;DHT22;4925;52.588;13.370;2023-03-02T04:31:01;2.00;99.90
9772;DHT22;4925;52.588;13.370;2023-03-02T04:33:27;1.90;99.90
9772;DHT22;4925;52.588;13.370;2023-03-02T04:35:53;2.00;99.90
9772;DHT22;4925;52.588;13.370;2023-03-02T04:38:19;1.90;99.90
9772;DHT22;4925;52.588;13.370;2023-03-02T04:40:45;1.90;99.90
9772;DHT22;4925;52.588;13.370;2023-03-02T04:43:11;1.80;99.90
9772;DHT22;4925;52.588;13.370;2023-03-02T04:45:37;1.80;99.90
9772;DHT22;4925;52.588;13.370;2023-03-02T04:48:03;1.80;99.90
9772;DHT22;4925;52.588;13.370;2023-03-02T04:50:29;1.70;99.90
9772;DHT22;4925;52.588;13.370;2023-03-02T04:52:55;1.70;99.90
9772;DHT22;4925;52.588;13.370;2023-03-02T04:55:23;1.60;99.90
9772;DHT22;4925;52.588;13.370;2023-03-02T04:57:49;1.60;99.90
9772;DHT22;4925;52.588;13.370;2023-03-02T05:00:16;1.50;99.90
9772;DHT22;4925;52.588;13.370;2023-03-02T05:02:43;1.50;99.90
9772;DHT22;4925;52.588;13.370;2023-03-02T05:05:18;1.50;99.90
9772;DHT22;4925;52.588;13.370;2023-03-02T05:07:44;1.50;99.90
9772;DHT22;4925;52.588;13.370;2023-03-02T05:10:12;1.50;99.90
9772;DHT22;4925;52.588;13.370;2023-03-02T05:12:38;1.50;99.90
9772;DHT22;4925;52.588;13.370;2023-03-02T05:15:32;1.60;99.90
9772;DHT22;4925;52.588;13.370;2023-03-02T05:17:59;1.60;99.90
9772;DHT22;4925;52.588;13.370;2023-03-02T05:20:26;1.60;99.90
9772;DHT22;4925;52.588;13.370;2023-03-02T05:22:59;1.60;99.90
9772;DHT22;4925;52.588;13.370;2023-03-02T05:25:29;1.50;99.90
9772;DHT22;4925;52.588;13.370;2023-03-02T05:27:55;1.50;99.90
9772;DHT22;4925;52.588;13.370;2023-03-02T05:30:21;1.50;99.90
9772;DHT22;4925;52.588;13.370;2023-03-02T05:32:49;1.50;99.90
9772;DHT22;4925;52.588;13.370;2023-03-02T05:35:15;1.40;99.90
9772;DHT22;4925;52.588;13.370;2023-03-02T05:37:40;1.30;99.90
9772;DHT22;4925;52.588;13.370;2023-03-02T05:40:13;1.30;99.90
9772;DHT22;4925;52.588;13.370;2023-03-02T05:42:40;1.20;99.90
9772;DHT22;4925;52.588;13.370;2023-03-02T05:45:08;1.10;99.90
9772;DHT22;4925;52.588;13.370;2023-03-02T05:47:36;1.00;99.90
9772;DHT22;4925;52.588;13.370;2023-03-02T05:50:01;0.80;99.90
9772;DHT22;4925;52.588;13.370;2023-03-02T05:52:27;0.90;99.90
9772;DHT22;4925;52.588;13.370;2023-03-02T05:54:53;0.80;99.90
9772;DHT22;4925;52.588;13.370;2023-03-02T05:57:18;0.90;99.90
9772;DHT22;4925;52.588;13.370;2023-03-02T05:59:44;0.80;99.90
9772;DHT22;4925;52.588;13.370;2023-03-02T06:02:11;0.70;99.90
9772;DHT22;4925;52.588;13.370;2023-03-02T06:04:37;0.80;99.90
9772;DHT22;4925;52.588;13.370;2023-03-02T06:07:08;0.70;99.90
9772;DHT22;4925;52.588;13.370;2023-03-02T06:09:34;0.70;99.90
9772;DHT22;4925;52.588;13.370;2023-03-02T06:12:00;0.70;99.90
9772;DHT22;4925;52.588;13.370;2023-03-02T06:14:25;0.60;99.90
9772;DHT22;4925;52.588;13.370;2023-03-02T06:16:51;0.60;99.90
9772;DHT22;4925;52.588;13.370;2023-03-02T06:19:17;0.70;99.90
9772;DHT22;4925;52.588;13.370;2023-03-02T06:21:42;0.70;99.90
9772;DHT22;4925;52.588;13.370;2023-03-02T06:24:08;0.60;99.90
9772;DHT22;4925;52.588;13.370;2023-03-02T06:26:33;0.60;99.90
9772;DHT22;4925;52.588;13.370;2023-03-02T06:28:59;0.50;99.90
9772;DHT22;4925;52.588;13.370;2023-03-02T06:31:25;0.50;99.90
9772;DHT22;4925;52.588;13.370;2023-03-02T06:33:50;0.60;99.90
9772;DHT22;4925;52.588;13.370;2023-03-02T06:36:16;0.60;99.90
9772;DHT22;4925;52.588;13.370;2023-03-02T06:38:42;0.60;99.90
9772;DHT22;4925;52.588;13.370;2023-03-02T06:41:08;0.70;99.90
9772;DHT22;4925;52.588;13.370;2023-03-02T06:43:33;0.80;99.90
9772;DHT22;4925;52.588;13.370;2023-03-02T06:45:59;0.80;99.90
9772;DHT22;4925;52.588;13.370;2023-03-02T06:48:25;0.70;99.90
9772;DHT22;4925;52.588;13.370;2023-03-02T06:50:51;0.80;99.90
9772;DHT22;4925;52.588;13.370;2023-03-02T06:53:17;0.80;99.90
9772;DHT22;4925;52.588;13.370;2023-03-02T06:55:46;0.90;99.90
9772;DHT22;4925;52.588;13.370;2023-03-02T06:58:12;0.80;99.90
9772;DHT22;4925;52.588;13.370;2023-03-02T07:00:38;0.90;99.90
9772;DHT22;4925;52.588;13.370;2023-03-02T07:03:04;0.90;99.90
9772;DHT22;4925;52.588;13.370;2023-03-02T07:05:30;1.00;99.90
9772;DHT22;4925;52.588;13.370;2023-03-02T07:07:57;1.00;99.90
9772;DHT22;4925;52.588;13.370;2023-03-02T07:10:23;1.20;99.90
9772;DHT22;4925;52.588;13.370;2023-03-02T07:12:49;1.20;99.90
9772;DHT22;4925;52.588;13.370;2023-03-02T07:15:16;1.10;99.90
9772;DHT22;4925;52.588;13.370;2023-03-02T07:17:43;1.10;99.90
9772;DHT22;4925;52.588;13.370;2023-03-02T07:20:14;1.10;99.90
9772;DHT22;4925;52.588;13.370;2023-03-02T07:22:40;1.20;99.90
9772;DHT22;4925;52.588;13.370;2023-03-02T07:25:07;1.10;99.90
9772;DHT22;4925;52.588;13.370;2023-03-02T07:27:33;1.00;99.90
9772;DHT22;4925;52.588;13.370;2023-03-02T07:29:59;1.00;99.90
9772;DHT22;4925;52.588;13.370;2023-03-02T07:32:25;1.00;99.90
9772;DHT22;4925;52.588;13.370;2023-03-02T07:34:50;1.00;99.90
9772;DHT22;4925;52.588;13.370;2023-03-02T07:37:16;1.00;99.90
9772;DHT22;4925;52.588;13.370;2023-03-02T07:39:42;1.00;99.90
9772;DHT22;4925;52.588;13.370;2023-03-02T07:42:08;1.10;99.90
9772;DHT22;4925;52.588;13.370;2023-03-02T07:44:35;1.10;99.90
9772;DHT22;4925;52.588;13.370;2023-03-02T07:47:01;1.10;99.90
9772;DHT22;4925;52.588;13.370;2023-03-02T07:49:27;1.20;99.90
9772;DHT22;4925;52.588;13.370;2023-03-02T07:51:53;1.20;99.90
9772;DHT22;4925;52.588;13.370;2023-03-02T07:54:18;1.10;99.90
9772;DHT22;4925;52.588;13.370;2023-03-02T07:56:44;1.20;99.90
9772;DHT22;4925;52.588;13.370;2023-03-02T07:59:13;1.30;99.90
9772;DHT22;4925;52.588;13.370;2023-03-02T08:01:39;1.30;99.90
9772;DHT22;4925;52.588;13.370;2023-03-02T08:04:05;1.50;99.90
9772;DHT22;4925;52.588;13.370;2023-03-02T08:06:31;1.60;99.90
9772;DHT22;4925;52.588;13.370;2023-03-02T08:08:56;1.70;99.90
9772;DHT22;4925;52.588;13.370;2023-03-02T08:11:24;1.80;99.90
9772;DHT22;4925;52.588;13.370;2023-03-02T08:13:50;2.00;99.90
9772;DHT22;4925;52.588;13.370;2023-03-02T08:16:16;1.90;99.90
9772;DHT22;4925;52.588;13.370;2023-03-02T08:18:42;2.00;99.90
9772;DHT22;4925;52.588;13.370;2023-03-02T08:21:16;2.10;99.90
9772;DHT22;4925;52.588;13.370;2023-03-02T08:23:43;2.40;99.90
9772;DHT22;4925;52.588;13.370;2023-03-02T08:26:09;2.10;99.90
9772;DHT22;4925;52.588;13.370;2023-03-02T08:28:35;2.20;99.90
9772;DHT22;4925;52.588;13.370;2023-03-02T08:31:02;2.30;99.90
9772;DHT22;4925;52.588;13.370;2023-03-02T08:33:28;2.40;99.90
9772;DHT22;4925;52.588;13.370;2023-03-02T08:35:57;2.70;99.90
9772;DHT22;4925;52.588;13.370;2023-03-02T08:38:23;2.80;99.90
9772;DHT22;4925;52.588;13.370;2023-03-02T08:40:50;3.00;99.90
9772;DHT22;4925;52.588;13.370;2023-03-02T08:43:17;2.90;99.90
9772;DHT22;4925;52.588;13.370;2023-03-02T08:45:43;2.90;99.90
9772;DHT22;4925;52.588;13.370;2023-03-02T08:48:08;3.00;99.90
9772;DHT22;4925;52.588;13.370;2023-03-02T08:50:34;2.90;99.90
9772;DHT22;4925;52.588;13.370;2023-03-02T08:53:00;2.90;99.90
9772;DHT22;4925;52.588;13.370;2023-03-02T08:55:25;2.80;99.90
9772;DHT22;4925;52.588;13.370;2023-03-02T08:57:51;2.70;99.90
9772;DHT22;4925;52.588;13.370;2023-03-02T09:00:17;2.80;99.90
9772;DHT22;4925;52.588;13.370;2023-03-02T09:02:43;2.80;99.90
9772;DHT22;4925;52.588;13.370;2023-03-02T09:05:09;2.80;99.90
9772;DHT22;4925;52.588;13.370;2023-03-02T09:07:34;2.90;99.90
9772;DHT22;4925;52.588;13.370;2023-03-02T09:10:00;3.00;99.90
9772;DHT22;4925;52.588;13.370;2023-03-02T09:12:26;3.10;99.90
9772;DHT22;4925;52.588;13.370;2023-03-02T09:14:51;3.30;99.90
9772;DHT22;4925;52.588;13.370;2023-03-02T09:17:17;3.40;99.90
9772;DHT22;4925;52.588;13.370;2023-03-02T09:19:43;3.60;99.90
9772;DHT22;4925;52.588;13.370;2023-03-02T09:22:08;3.80;99.90
9772;DHT22;4925;52.588;13.370;2023-03-02T09:24:35;3.90;99.90
9772;DHT22;4925;52.588;13.370;2023-03-02T09:27:02;3.70;99.90
9772;DHT22;4925;52.588;13.370;2023-03-02T09:29:28;3.80;99.90
9772;DHT22;4925;52.588;13.370;2023-03-02T09:31:54;3.80;99.90
9772;DHT22;4925;52.588;13.370;2023-03-02T09:34:20;4.10;99.90
9772;DHT22;4925;52.588;13.370;2023-03-02T09:36:46;4.10;99.90
9772;DHT22;4925;52.588;13.370;2023-03-02T09:39:12;4.40;99.90
9772;DHT22;4925;52.588;13.370;2023-03-02T09:44:34;4.40;99.90
9772;DHT22;4925;52.588;13.370;2023-03-02T09:54:41;4.20;99.90
9772;DHT22;4925;52.588;13.370;2023-03-02T09:57:21;4.40;99.90
9772;DHT22;4925;52.588;13.370;2023-03-02T10:00:36;4.50;99.90
9772;DHT22;4925;52.588;13.370;2023-03-02T10:02:45;4.60;99.90
9772;DHT22;4925;52.588;13.370;2023-03-02T10:05:19;4.60;99.90
9772;DHT22;4925;52.588;13.370;2023-03-02T10:07:45;4.70;99.90
9772;DHT22;4925;52.588;13.370;2023-03-02T10:23:48;4.70;99.90
9772;DHT22;4925;52.588;13.370;2023-03-02T10:26:43;4.60;99.90
9772;DHT22;4925;52.588;13.370;2023-03-02T10:31:38;4.80;99.90
9772;DHT22;4925;52.588;13.370;2023-03-02T10:34:06;5.00;99.90
9772;DHT22;4925;52.588;13.370;2023-03-02T10:36:41;5.10;99.90
9772;DHT22;4925;52.588;13.370;2023-03-02T10:39:15;5.10;99.90
9772;DHT22;4925;52.588;13.370;2023-03-02T10:42:03;5.10;99.90
9772;DHT22;4925;52.588;13.370;2023-03-02T10:44:34;5.10;99.90
9772;DHT22;4925;52.588;13.370;2023-03-02T10:47:03;5.00;99.90
9772;DHT22;4925;52.588;13.370;2023-03-02T10:49:36;5.20;99.90
9772;DHT22;4925;52.588;13.370;2023-03-02T10:52:20;5.20;99.90
9772;DHT22;4925;52.588;13.370;2023-03-02T10:54:46;5.10;99.90
9772;DHT22;4925;52.588;13.370;2023-03-02T10:57:36;5.30;99.90
9772;DHT22;4925;52.588;13.370;2023-03-02T11:00:16;5.50;99.90
9772;DHT22;4925;52.588;13.370;2023-03-02T11:02:53;5.50;99.90
9772;DHT22;4925;52.588;13.370;2023-03-02T11:05:27;5.60;99.90
9772;DHT22;4925;52.588;13.370;2023-03-02T11:07:55;5.30;99.90
9772;DHT22;4925;52.588;13.370;2023-03-02T11:10:23;5.20;99.90
9772;DHT22;4925;52.588;13.370;2023-03-02T11:12:51;5.10;99.90
9772;DHT22;4925;52.588;13.370;2023-03-02T11:15:40;5.10;99.90
9772;DHT22;4925;52.588;13.370;2023-03-02T11:21:10;5.40;99.90
9772;DHT22;4925;52.588;13.370;2023-03-02T11:26:51;5.50;99.90
9772;DHT22;4925;52.588;13.370;2023-03-02T11:29:29;5.50;99.90
9772;DHT22;4925;52.588;13.370;2023-03-02T11:34:33;6.00;99.90
9772;DHT22;4925;52.588;13.370;2023-03-02T11:37:21;6.10;99.90
9772;DHT22;4925;52.588;13.370;2023-03-02T11:42:40;6.00;99.90
9772;DHT22;4925;52.588;13.370;2023-03-02T11:47:39;6.00;99.90
9772;DHT22;4925;52.588;13.370;2023-03-02T11:50:10;6.00;99.90
9772;DHT22;4925;52.588;13.370;2023-03-02T11:52:40;6.00;99.90
9772;DHT22;4925;52.588;13.370;2023-03-02T11:57:40;6.00;99.90
9772;DHT22;4925;52.588;13.370;2023-03-02T12:00:40;6.00;99.90
9772;DHT22;4925;52.588;13.370;2023-03-02T12:06:23;6.20;99.90
9772;DHT22;4925;52.588;13.370;2023-03-02T12:09:05;6.20;99.90
9772;DHT22;4925;52.588;13.370;2023-03-02T12:11:35;6.10;99.90
9772;DHT22;4925;52.588;13.370;2023-03-02T12:14:22;6.20;99.90
9772;DHT22;4925;52.588;13.370;2023-03-02T12:16:49;6.30;99.90
9772;DHT22;4925;52.588;13.370;2023-03-02T12:21:58;6.50;99.90
9772;DHT22;4925;52.588;13.370;2023-03-02T12:24:30;6.50;99.90
9772;DHT22;4925;52.588;13.370;2023-03-02T12:27:22;6.50;99.90
9772;DHT22;4925;52.588;13.370;2023-03-02T12:30:07;6.90;99.90
9772;DHT22;4925;52.588;13.370;2023-03-02T12:32:34;7.00;99.90
9772;DHT22;4925;52.588;13.370;2023-03-02T12:35:12;7.00;99.90
9772;DHT22;4925;52.588;13.370;2023-03-02T12:37:48;7.20;99.90
9772;DHT22;4925;52.588;13.370;2023-03-02T12:49:06;7.70;99.90
9772;DHT22;4925;52.588;13.370;2023-03-02T12:51:58;8.30;99.90
9772;DHT22;4925;52.588;13.370;2023-03-02T12:54:30;8.60;99.90
9772;DHT22;4925;52.588;13.370;2023-03-02T12:57:16;9.00;99.90
9772;DHT22;4925;52.588;13.370;2023-03-02T12:59:49;9.50;99.90
9772;DHT22;4925;52.588;13.370;2023-03-02T13:02:26;9.60;99.90
9772;DHT22;4925;52.588;13.370;2023-03-02T13:05:04;10.00;99.90
9772;DHT22;4925;52.588;13.370;2023-03-02T13:08:00;10.00;99.90
9772;DHT22;4925;52.588;13.370;2023-03-02T13:10:39;10.20;99.90
9772;DHT22;4925;52.588;13.370;2023-03-02T13:13:21;10.30;99.20
9772;DHT22;4925;52.588;13.370;2023-03-02T13:15:51;10.50;98.90
9772;DHT22;4925;52.588;13.370;2023-03-02T13:18:27;10.70;98.00
9772;DHT22;4925;52.588;13.370;2023-03-02T13:20:57;10.90;97.30
9772;DHT22;4925;52.588;13.370;2023-03-02T13:23:25;11.00;96.90
9772;DHT22;4925;52.588;13.370;2023-03-02T13:25:57;10.90;96.80
9772;DHT22;4925;52.588;13.370;2023-03-02T13:28:37;10.90;96.50
9772;DHT22;4925;52.588;13.370;2023-03-02T13:31:18;10.90;96.20
9772;DHT22;4925;52.588;13.370;2023-03-02T13:33:46;10.90;96.80
9772;DHT22;4925;52.588;13.370;2023-03-02T13:36:32;10.80;96.40
9772;DHT22;4925;52.588;13.370;2023-03-02T13:39:00;11.00;96.40
9772;DHT22;4925;52.588;13.370;2023-03-02T13:41:31;11.10;96.10
9772;DHT22;4925;52.588;13.370;2023-03-02T13:43:58;11.10;96.00
9772;DHT22;4925;52.588;13.370;2023-03-02T13:46:32;11.00;95.30
9772;DHT22;4925;52.588;13.370;2023-03-02T13:49:01;11.00;95.70
9772;DHT22;4925;52.588;13.370;2023-03-02T13:51:37;10.90;95.70
9772;DHT22;4925;52.588;13.370;2023-03-02T13:54:05;11.00;96.10
9772;DHT22;4925;52.588;13.370;2023-03-02T13:56:38;11.10;95.60
9772;DHT22;4925;52.588;13.370;2023-03-02T13:59:15;11.00;95.60
9772;DHT22;4925;52.588;13.370;2023-03-02T14:01:42;10.60;96.10
9772;DHT22;4925;52.588;13.370;2023-03-02T14:04:13;10.00;97.10
9772;DHT22;4925;52.588;13.370;2023-03-02T14:06:39;9.80;98.60
9772;DHT22;4925;52.588;13.370;2023-03-02T14:09:05;9.50;99.80
9772;DHT22;4925;52.588;13.370;2023-03-02T14:11:35;9.40;99.90
9772;DHT22;4925;52.588;13.370;2023-03-02T14:14:02;9.40;99.90
9772;DHT22;4925;52.588;13.370;2023-03-02T14:16:29;9.30;99.90
9772;DHT22;4925;52.588;13.370;2023-03-02T14:18:54;9.10;99.90
9772;DHT22;4925;52.588;13.370;2023-03-02T14:21:25;8.90;99.90
9772;DHT22;4925;52.588;13.370;2023-03-02T14:23:51;8.70;99.90
9772;DHT22;4925;52.588;13.370;2023-03-02T14:26:34;8.70;99.90
9772;DHT22;4925;52.588;13.370;2023-03-02T14:29:05;8.40;99.90
9772;DHT22;4925;52.588;13.370;2023-03-02T14:31:31;8.40;99.90
9772;DHT22;4925;52.588;13.370;2023-03-02T14:33:57;8.20;99.90
9772;DHT22;4925;52.588;13.370;2023-03-02T14:36:31;7.90;99.90
9772;DHT22;4925;52.588;13.370;2023-03-02T14:39:00;7.70;99.90
9772;DHT22;4925;52.588;13.370;2023-03-02T14:41:27;7.40;99.90
9772;DHT22;4925;52.588;13.370;2023-03-02T14:43:54;7.30;99.90
9772;DHT22;4925;52.588;13.370;2023-03-02T14:46:20;6.90;99.90
9772;DHT22;4925;52.588;13.370;2023-03-02T14:48:46;6.70;99.90
9772;DHT22;4925;52.588;13.370;2023-03-02T14:51:18;6.60;99.90
9772;DHT22;4925;52.588;13.370;2023-03-02T14:53:45;6.60;99.90
9772;DHT22;4925;52.588;13.370;2023-03-02T14:56:11;6.60;99.90
9772;DHT22;4925;52.588;13.370;2023-03-02T14:58:38;6.60;99.90
9772;DHT22;4925;52.588;13.370;2023-03-02T15:01:04;6.80;99.90
9772;DHT22;4925;52.588;13.370;2023-03-02T15:03:30;6.50;99.90
9772;DHT22;4925;52.588;13.370;2023-03-02T15:05:56;6.40;99.90
9772;DHT22;4925;52.588;13.370;2023-03-02T15:08:22;6.20;99.90
9772;DHT22;4925;52.588;13.370;2023-03-02T15:10:48;6.20;99.90
9772;DHT22;4925;52.588;13.370;2023-03-02T15:13:14;6.30;99.90
9772;DHT22;4925;52.588;13.370;2023-03-02T15:15:42;6.10;99.90
9772;DHT22;4925;52.588;13.370;2023-03-02T15:18:10;6.00;99.90
9772;DHT22;4925;52.588;13.370;2023-03-02T15:20:36;5.80;99.90
9772;DHT22;4925;52.588;13.370;2023-03-02T15:23:02;5.70;99.90
9772;DHT22;4925;52.588;13.370;2023-03-02T15:25:28;5.80;99.90
9772;DHT22;4925;52.588;13.370;2023-03-02T15:27:55;5.80;99.90
9772;DHT22;4925;52.588;13.370;2023-03-02T15:30:21;5.80;99.90
9772;DHT22;4925;52.588;13.370;2023-03-02T15:32:52;5.70;99.90
9772;DHT22;4925;52.588;13.370;2023-03-02T15:35:19;5.60;99.90
9772;DHT22;4925;52.588;13.370;2023-03-02T15:37:45;5.40;99.90
9772;DHT22;4925;52.588;13.370;2023-03-02T15:40:11;5.50;99.90
9772;DHT22;4925;52.588;13.370;2023-03-02T15:42:37;5.40;99.90
9772;DHT22;4925;52.588;13.370;2023-03-02T15:45:04;5.50;99.90
9772;DHT22;4925;52.588;13.370;2023-03-02T15:47:29;5.30;99.90
9772;DHT22;4925;52.588;13.370;2023-03-02T15:49:55;5.30;99.90
9772;DHT22;4925;52.588;13.370;2023-03-02T15:52:21;5.30;99.90
9772;DHT22;4925;52.588;13.370;2023-03-02T15:54:46;5.40;99.90
9772;DHT22;4925;52.588;13.370;2023-03-02T15:57:12;5.20;99.90
9772;DHT22;4925;52.588;13.370;2023-03-02T15:59:38;5.20;99.90
9772;DHT22;4925;52.588;13.370;2023-03-02T16:02:04;5.10;99.90
9772;DHT22;4925;52.588;13.370;2023-03-02T16:04:32;5.10;99.90
9772;DHT22;4925;52.588;13.370;2023-03-02T16:06:59;5.00;99.90
9772;DHT22;4925;52.588;13.370;2023-03-02T16:09:25;4.80;99.90
9772;DHT22;4925;52.588;13.370;2023-03-02T16:11:53;4.70;99.90
9772;DHT22;4925;52.588;13.370;2023-03-02T16:14:20;4.50;99.90
9772;DHT22;4925;52.588;13.370;2023-03-02T16:16:46;4.60;99.90
9772;DHT22;4925;52.588;13.370;2023-03-02T16:19:15;4.60;99.90
9772;DHT22;4925;52.588;13.370;2023-03-02T16:21:41;4.50;99.90
9772;DHT22;4925;52.588;13.370;2023-03-02T16:24:07;4.60;99.90
9772;DHT22;4925;52.588;13.370;2023-03-02T16:26:35;4.50;99.90
9772;DHT22;4925;52.588;13.370;2023-03-02T16:29:03;5.10;99.90
9772;DHT22;4925;52.588;13.370;2023-03-02T16:31:29;5.20;99.90
9772;DHT22;4925;52.588;13.370;2023-03-02T16:33:58;5.20;99.90
9772;DHT22;4925;52.588;13.370;2023-03-02T16:36:24;5.10;99.90
9772;DHT22;4925;52.588;13.370;2023-03-02T16:38:50;5.00;99.90
9772;DHT22;4925;52.588;13.370;2023-03-02T16:41:18;5.00;99.90
9772;DHT22;4925;52.588;13.370;2023-03-02T16:43:51;4.90;99.90
9772;DHT22;4925;52.588;13.370;2023-03-02T16:46:18;4.80;99.90
9772;DHT22;4925;52.588;13.370;2023-03-02T16:48:45;4.80;99.90
9772;DHT22;4925;52.588;13.370;2023-03-02T16:51:16;4.50;99.90
9772;DHT22;4925;52.588;13.370;2023-03-02T16:53:42;4.40;99.90
9772;DHT22;4925;52.588;13.370;2023-03-02T16:56:09;4.30;99.90
9772;DHT22;4925;52.588;13.370;2023-03-02T16:58:36;4.40;99.90
9772;DHT22;4925;52.588;13.370;2023-03-02T17:01:05;4.30;99.90
9772;DHT22;4925;52.588;13.370;2023-03-02T17:03:31;4.10;99.90
9772;DHT22;4925;52.588;13.370;2023-03-02T17:05:57;4.20;99.90
9772;DHT22;4925;52.588;13.370;2023-03-02T17:08:23;4.10;99.90
9772;DHT22;4925;52.588;13.370;2023-03-02T17:10:49;4.00;99.90
9772;DHT22;4925;52.588;13.370;2023-03-02T17:13:15;3.90;99.90
9772;DHT22;4925;52.588;13.370;2023-03-02T17:15:41;3.90;99.90
9772;DHT22;4925;52.588;13.370;2023-03-02T17:18:07;3.80;99.90
9772;DHT22;4925;52.588;13.370;2023-03-02T17:20:33;3.90;99.90
9772;DHT22;4925;52.588;13.370;2023-03-02T17:22:59;3.80;99.90
9772;DHT22;4925;52.588;13.370;2023-03-02T17:25:27;3.70;99.90